Time;durP1;ratioP1;P1;durP2;ratioP2;P2;SDS_P1;SDS_P2;PMS_P1;PMS_P2;Temp;Humidity;BMP_temperature;BMP_pressure;BME280_temperature;BME280_humidity;BME280_pressure;Samples;Min_cycle;Max_cycle;Signal;HPM_P1;HPM_P2
2022/06/29 00:00:06;;;;;;;5.97;4.53;;;;;;;;;;4992154;28;20031;-72
2022/06/29 00:02:32;;;;;;;4.55;4.15;;;;;;;;;;4993736;28;20038;-71
2022/06/29 00:04:58;;;;;;;4.85;4.43;;;;;;;;;;4992947;28;20491;-72
2022/06/29 00:07:24;;;;;;;5.38;4.30;;;;;;;;;;4992638;28;20042;-71
2022/06/29 00:09:50;;;;;;;4.60;4.25;;;;;;;;;;4992986;28;20026;-72
2022/06/29 00:12:22;;;;;;;4.55;4.15;;;;;;;;;;4993449;28;20031;-72
2022/06/29 00:14:55;;;;;;;4.97;4.55;;;;;;;;;;4990892;28;20030;-72
2022/06/29 00:17:23;;;;;;;5.15;4.65;;;;;;;;;;4993477;28;20030;-73
2022/06/29 00:19:49;;;;;;;4.50;4.00;;;;;;;;;;4993059;28;20064;-70
2022/06/29 00:22:15;;;;;;;5.53;4.30;;;;;;;;;;4993814;28;20025;-72
2022/06/29 00:24:41;;;;;;;4.72;4.32;;;;;;;;;;4992431;28;20026;-72
2022/06/29 00:27:08;;;;;;;4.25;3.90;;;;;;;;;;4992335;28;20030;-71
2022/06/29 00:29:34;;;;;;;7.50;5.28;;;;;;;;;;4993256;28;20033;-71
2022/06/29 00:32:00;;;;;;;7.18;4.60;;;;;;;;;;4993954;28;20077;-71
2022/06/29 00:34:26;;;;;;;6.72;4.97;;;;;;;;;;5011835;28;20506;-73
2022/06/29 00:36:53;;;;;;;5.50;4.95;;;;;;;;;;5009899;28;20663;-71
2022/06/29 00:39:19;;;;;;;5.05;4.55;;;;;;;;;;5012952;28;20038;-71
2022/06/29 00:41:46;;;;;;;4.95;4.55;;;;;;;;;;5012220;28;20439;-72
2022/06/29 00:44:15;;;;;;;6.20;5.05;;;;;;;;;;5005735;28;20094;-72
2022/06/29 00:47:01;;;;;;;5.37;4.87;;;;;;;;;;5011135;28;20478;-71
2022/06/29 00:49:29;;;;;;;4.93;4.53;;;;;;;;;;4995176;28;20022;-71
2022/06/29 00:52:08;;;;;;;5.82;4.90;;;;;;;;;;5007045;28;20030;-71
2022/06/29 00:54:40;;;;;;;5.60;5.10;;;;;;;;;;5000931;28;20084;-72
2022/06/29 00:57:08;;;;;;;4.88;4.38;;;;;;;;;;4998710;28;20081;-72
2022/06/29 00:59:44;;;;;;;5.10;4.70;;;;;;;;;;5008010;28;20029;-72
2022/06/29 01:02:10;;;;;;;5.03;4.63;;;;;;;;;;5002495;28;20605;-72
2022/06/29 01:04:36;;;;;;;5.88;5.32;;;;;;;;;;5006656;28;20033;-71
2022/06/29 01:07:03;;;;;;;5.63;5.13;;;;;;;;;;5000327;28;20499;-72
2022/06/29 01:09:29;;;;;;;5.30;4.90;;;;;;;;;;5007654;28;20037;-72
2022/06/29 01:11:55;;;;;;;5.90;5.28;;;;;;;;;;5008336;28;20463;-70
2022/06/29 01:14:21;;;;;;;5.53;5.03;;;;;;;;;;5011146;28;20030;-73
2022/06/29 01:16:47;;;;;;;6.47;5.28;;;;;;;;;;5011832;28;20076;-70
2022/06/29 01:19:13;;;;;;;7.07;4.82;;;;;;;;;;4999654;28;20030;-72
2022/06/29 01:21:40;;;;;;;7.38;4.72;;;;;;;;;;5007207;28;20137;-72
2022/06/29 01:24:06;;;;;;;5.18;4.78;;;;;;;;;;5008576;28;20547;-72
2022/06/29 01:26:32;;;;;;;5.18;4.68;;;;;;;;;;4992941;28;20112;-72
2022/06/29 01:28:58;;;;;;;5.43;4.47;;;;;;;;;;5001496;28;20045;-72
2022/06/29 01:31:24;;;;;;;6.25;4.70;;;;;;;;;;4995281;28;20026;-71
2022/06/29 01:33:50;;;;;;;5.97;5.30;;;;;;;;;;4998522;28;20085;-70
2022/06/29 01:36:16;;;;;;;5.90;5.30;;;17.30;99.90;;;;;;4997451;28;20061;-71
2022/06/29 01:38:42;;;;;;;5.32;4.82;;;17.30;99.90;;;;;;5000160;28;20026;-71
2022/06/29 01:41:10;;;;;;;5.65;4.90;;;17.30;99.90;;;;;;5009583;28;20518;-71
2022/06/29 01:43:37;;;;;;;5.22;4.82;;;17.30;99.90;;;;;;4997698;28;20030;-71
2022/06/29 01:46:03;;;;;;;5.95;5.20;;;17.20;99.90;;;;;;4991954;28;20186;-71
2022/06/29 01:48:28;;;;;;;6.40;5.88;;;17.20;99.90;;;;;;5005860;28;20064;-72
2022/06/29 01:50:54;;;;;;;6.20;5.13;;;17.20;99.90;;;;;;4993859;28;20030;-72
2022/06/29 01:53:20;;;;;;;9.10;6.15;;;17.20;99.90;;;;;;5001734;28;20450;-72
2022/06/29 01:55:46;;;;;;;7.15;5.85;;;17.20;99.90;;;;;;4997245;28;20038;-72
2022/06/29 01:58:13;;;;;;;6.35;5.85;;;17.20;99.90;;;;;;5006118;28;20042;-73
2022/06/29 02:00:39;;;;;;;5.88;5.20;;;17.10;99.90;;;;;;4993565;28;20030;-73
2022/06/29 02:03:04;;;;;;;5.82;5.00;;;17.10;99.90;;;;;;5001259;28;20030;-72
2022/06/29 02:05:30;;;;;;;5.68;5.18;;;17.10;99.90;;;;;;4992014;28;20061;-72
2022/06/29 02:07:56;;;;;;;6.40;5.50;;;17.10;99.90;;;;;;4995415;28;20046;-71
2022/06/29 02:10:22;;;;;;;6.40;5.80;;;17.10;99.90;;;;;;5002243;28;20034;-71
2022/06/29 02:12:47;;;;;;;10.73;6.05;;;17.00;99.90;;;;;;5004126;28;20027;-71
2022/06/29 02:15:13;;;;;;;7.38;6.68;;;17.00;99.90;;;;;;4991193;28;20045;-71
2022/06/29 02:17:38;;;;;;;8.30;6.10;;;17.00;99.90;;;;;;4992277;28;20031;-72
2022/06/29 02:20:05;;;;;;;6.85;6.10;;;17.00;99.90;;;;;;4997051;28;20523;-72
2022/06/29 02:22:30;;;;;;;6.68;6.03;;;17.00;99.90;;;;;;5006154;28;20116;-72
2022/06/29 02:24:56;;;;;;;8.73;6.80;;;16.90;99.90;;;;;;5004231;28;20041;-72
2022/06/29 02:27:21;;;;;;;8.07;6.90;;;16.90;99.90;;;;;;5009069;28;20029;-72
2022/06/29 02:29:47;;;;;;;9.75;6.35;;;16.90;99.90;;;;;;5005377;28;20072;-72
2022/06/29 02:34:57;;;;;;;10.77;7.38;;;16.80;99.90;;;;;;4994719;28;20514;-71
2022/06/29 02:37:22;;;;;;;7.15;6.10;;;16.80;99.90;;;;;;4979075;28;20030;-71
2022/06/29 02:39:48;;;;;;;6.78;6.10;;;16.80;99.90;;;;;;5003898;28;20104;-71
2022/06/29 02:42:14;;;;;;;10.48;6.53;;;16.80;99.90;;;;;;5003557;28;20035;-71
2022/06/29 02:44:41;;;;;;;6.88;6.15;;;16.80;99.90;;;;;;4995890;28;20043;-71
2022/06/29 02:47:07;;;;;;;7.50;6.75;;;16.80;99.90;;;;;;5000130;28;20057;-71
2022/06/29 02:49:33;;;;;;;8.20;6.78;;;16.80;99.90;;;;;;5000422;28;20089;-71
2022/06/29 02:51:59;;;;;;;8.32;6.50;;;16.70;99.90;;;;;;4999668;28;20468;-71
2022/06/29 02:54:25;;;;;;;7.18;6.47;;;16.70;99.90;;;;;;4996692;28;20026;-71
2022/06/29 02:56:52;;;;;;;7.70;6.45;;;16.70;99.90;;;;;;5014183;28;20044;-71
2022/06/29 02:59:18;;;;;;;7.15;6.45;;;16.70;99.90;;;;;;5011771;28;20029;-71
2022/06/29 03:01:44;;;;;;;7.22;6.53;;;16.60;99.90;;;;;;5004409;28;20019;-72
2022/06/29 03:04:09;;;;;;;7.97;6.43;;;16.70;99.90;;;;;;4994889;28;20026;-71
2022/06/29 03:06:35;;;;;;;8.15;5.97;;;16.60;99.90;;;;;;4996443;28;20026;-71
2022/06/29 03:09:01;;;;;;;8.35;6.20;;;16.60;99.90;;;;;;5003019;28;20455;-72
2022/06/29 03:11:26;;;;;;;7.82;6.70;;;16.60;99.90;;;;;;5009518;28;20022;-71
2022/06/29 03:13:52;;;;;;;7.68;6.97;;;16.60;99.90;;;;;;5013611;28;20459;-70
2022/06/29 03:16:18;;;;;;;8.05;7.05;;;16.60;99.90;;;;;;5003439;28;20022;-71
2022/06/29 03:18:44;;;;;;;8.45;6.53;;;16.50;99.90;;;;;;5011466;28;20029;-71
2022/06/29 03:21:10;;;;;;;8.15;6.32;;;16.50;99.90;;;;;;5008761;28;20030;-72
2022/06/29 03:23:37;;;;;;;7.18;6.20;;;16.50;99.90;;;;;;4995145;28;20026;-72
2022/06/29 03:26:02;;;;;;;7.43;6.80;;;16.50;99.90;;;;;;5002729;28;20459;-72
2022/06/29 03:28:28;;;;;;;7.32;6.10;;;16.50;99.90;;;;;;5004034;28;20080;-71
2022/06/29 03:30:54;;;;;;;7.22;6.53;;;16.50;99.90;;;;;;5011404;28;20027;-70
2022/06/29 03:33:21;;;;;;;7.35;6.65;;;16.50;99.90;;;;;;5013437;28;20471;-72
2022/06/29 03:35:47;;;;;;;7.75;6.28;;;16.50;99.90;;;;;;5012558;28;20040;-71
2022/06/29 03:38:13;;;;;;;6.97;6.38;;;16.50;99.90;;;;;;5005018;28;20026;-71
2022/06/29 03:40:38;;;;;;;7.40;6.70;;;16.50;99.90;;;;;;5006809;28;20030;-72
2022/06/29 03:43:04;;;;;;;7.68;6.88;;;16.60;99.90;;;;;;4993700;28;20030;-71
2022/06/29 03:45:29;;;;;;;9.18;7.00;;;16.60;99.90;;;;;;5011694;28;20084;-71
2022/06/29 03:47:55;;;;;;;8.73;6.38;;;16.60;99.90;;;;;;5013550;28;20592;-70
2022/06/29 03:50:21;;;;;;;6.63;5.93;;;16.60;99.90;;;;;;5004540;28;20030;-71
2022/06/29 03:52:46;;;;;;;8.32;7.47;;;16.60;99.90;;;;;;5013786;28;20025;-71
2022/06/29 03:55:12;;;;;;;9.30;7.60;;;16.60;99.90;;;;;;5012083;28;20041;-71
2022/06/29 03:57:38;;;;;;;8.35;6.75;;;16.60;99.90;;;;;;5001738;28;20030;-71
2022/06/29 04:00:04;;;;;;;7.78;6.88;;;16.70;99.90;;;;;;5005047;28;20037;-71
2022/06/29 04:02:30;;;;;;;7.68;6.55;;;16.60;99.90;;;;;;5009208;28;20446;-70
2022/06/29 04:04:55;;;;;;;8.60;6.70;;;16.60;99.90;;;;;;5012979;28;20029;-71
2022/06/29 04:07:21;;;;;;;7.30;6.25;;;16.60;99.90;;;;;;4996516;28;20050;-72
2022/06/29 04:09:46;;;;;;;6.90;6.20;;;16.60;99.90;;;;;;5001369;28;20108;-72
2022/06/29 04:12:12;;;;;;;9.00;7.38;;;16.70;99.90;;;;;;5002971;28;20026;-72
2022/06/29 04:14:38;;;;;;;6.25;5.60;;;16.70;99.90;;;;;;5002010;28;20034;-72
2022/06/29 04:17:04;;;;;;;7.65;6.82;;;16.70;99.90;;;;;;4994402;28;20041;-70
2022/06/29 04:19:30;;;;;;;7.63;6.90;;;16.70;99.90;;;;;;5003276;28;20022;-72
2022/06/29 04:21:55;;;;;;;7.28;6.45;;;16.80;99.90;;;;;;4995090;28;20030;-72
2022/06/29 04:24:22;;;;;;;7.20;6.50;;;16.80;99.90;;;;;;4993159;28;20380;-72
2022/06/29 04:26:48;;;;;;;6.78;6.18;;;16.90;99.90;;;;;;4995173;28;20038;-71
2022/06/29 04:29:13;;;;;;;7.65;6.82;;;16.90;99.90;;;;;;5009672;28;20030;-71
2022/06/29 04:31:39;;;;;;;7.85;7.13;;;17.00;99.90;;;;;;5005503;28;20076;-71
2022/06/29 04:34:05;;;;;;;8.93;6.15;;;17.00;99.90;;;;;;4998810;28;20054;-71
2022/06/29 04:36:31;;;;;;;6.65;6.05;;;17.10;99.90;;;;;;4994320;28;20529;-72
2022/06/29 04:38:56;;;;;;;6.32;5.82;;;17.10;99.90;;;;;;4998906;28;20105;-72
2022/06/29 04:41:23;;;;;;;7.15;6.38;;;17.20;99.90;;;;;;4995998;28;20023;-72
2022/06/29 04:43:49;;;;;;;6.38;5.78;;;17.30;99.90;;;;;;4993221;28;20034;-72
2022/06/29 04:46:21;;;;;;;7.35;6.32;;;17.30;99.90;;;;;;4992573;28;20076;-72
2022/06/29 04:48:48;;;;;;;7.93;6.40;;;17.40;99.90;;;;;;5011106;28;20528;-72
2022/06/29 04:51:15;;;;;;;6.68;6.07;;;17.50;99.90;;;;;;4996358;28;20131;-72
2022/06/29 04:53:43;;;;;;;8.57;6.60;;;17.50;99.90;;;;;;5002544;28;20022;-72
2022/06/29 04:56:09;;;;;;;7.35;5.88;;;17.60;99.90;;;;;;5010557;28;20022;-72
2022/06/29 04:58:34;;;;;;;7.07;5.70;;;17.60;99.90;;;;;;5004479;28;20046;-72
2022/06/29 05:01:00;;;;;;;7.70;5.97;;;17.60;99.90;;;;;;5007612;28;20025;-71
2022/06/29 05:03:26;;;;;;;6.75;6.15;;;17.60;99.90;;;;;;4985032;28;20034;-72
2022/06/29 05:05:51;;;;;;;7.07;6.38;;;17.60;99.90;;;;;;4992599;28;20121;-72
2022/06/29 05:08:17;;;;;;;7.35;6.50;;;17.60;99.90;;;;;;4999889;28;20376;-71
2022/06/29 05:10:43;;;;;;;6.30;5.70;;;17.60;99.90;;;;;;5003653;28;20111;-72
2022/06/29 05:13:09;;;;;;;6.25;5.68;;;17.70;99.90;;;;;;5008086;28;20074;-72
2022/06/29 05:15:35;;;;;;;8.95;5.72;;;17.60;99.90;;;;;;5005412;28;20498;-72
2022/06/29 05:18:01;;;;;;;6.63;5.93;;;17.70;99.90;;;;;;5010221;28;20494;-71
2022/06/29 05:20:27;;;;;;;6.88;5.88;;;17.70;99.90;;;;;;4992964;28;20022;-72
2022/06/29 05:22:53;;;;;;;6.35;5.75;;;17.70;99.90;;;;;;4993433;28;20030;-72
2022/06/29 05:25:19;;;;;;;7.68;6.20;;;17.80;99.90;;;;;;5010619;28;20041;-71
2022/06/29 05:27:46;;;;;;;6.70;5.68;;;17.80;99.90;;;;;;4993384;28;20123;-72
2022/06/29 05:30:12;;;;;;;6.40;5.80;;;17.80;99.90;;;;;;5005157;28;20030;-71
2022/06/29 05:32:38;;;;;;;7.07;6.25;;;17.80;99.90;;;;;;5009510;28;20144;-71
2022/06/29 05:35:04;;;;;;;6.85;6.20;;;17.80;99.90;;;;;;5009757;28;20044;-70
2022/06/29 05:37:31;;;;;;;9.40;6.95;;;17.80;99.90;;;;;;5010247;28;20040;-72
2022/06/29 05:39:56;;;;;;;10.90;7.65;;;17.80;99.90;;;;;;5009145;28;20120;-71
2022/06/29 05:42:22;;;;;;;9.05;7.25;;;17.90;99.90;;;;;;5005593;28;20116;-71
2022/06/29 05:44:48;;;;;;;10.30;6.72;;;17.90;99.90;;;;;;5005716;28;20138;-71
2022/06/29 05:47:14;;;;;;;10.00;6.53;;;17.90;99.90;;;;;;4998280;28;20054;-74
2022/06/29 05:49:40;;;;;;;10.43;6.82;;;17.90;99.90;;;;;;5010858;28;20120;-72
2022/06/29 05:52:06;;;;;;;10.63;7.22;;;17.90;99.90;;;;;;5005792;28;20035;-71
2022/06/29 05:54:32;;;;;;;8.05;6.53;;;17.90;99.90;;;;;;4993192;28;20037;-72
2022/06/29 05:56:57;;;;;;;6.53;5.90;;;17.90;99.90;;;;;;5003032;28;20050;-71
2022/06/29 05:59:23;;;;;;;6.85;6.13;;;18.00;99.90;;;;;;4993805;28;20021;-77
2022/06/29 06:01:48;;;;;;;6.55;5.70;;;18.00;99.90;;;;;;5007526;28;20045;-77
2022/06/29 06:04:14;;;;;;;7.22;5.68;;;18.10;99.90;;;;;;5002533;28;20038;-77
2022/06/29 06:06:39;;;;;;;8.95;6.07;;;18.20;99.90;;;;;;5010309;28;20057;-77
2022/06/29 06:09:06;;;;;;;6.43;5.22;;;18.30;99.90;;;;;;5007483;28;20026;-77
2022/06/29 06:11:32;;;;;;;7.60;5.93;;;18.50;99.90;;;;;;5009018;28;20026;-75
2022/06/29 06:13:57;;;;;;;7.28;6.30;;;18.50;99.90;;;;;;5011268;28;20030;-75
2022/06/29 06:16:23;;;;;;;6.95;6.25;;;18.70;99.90;;;;;;5003412;28;20057;-76
2022/06/29 06:18:49;;;;;;;7.53;6.10;;;18.80;99.90;;;;;;5009248;28;20105;-75
2022/06/29 06:21:15;;;;;;;11.40;6.97;;;18.90;99.90;;;;;;4991627;28;20168;-74
2022/06/29 06:23:41;;;;;;;12.05;6.55;;;19.00;99.90;;;;;;5010610;28;20026;-73
2022/06/29 06:26:06;;;;;;;10.15;6.55;;;19.20;99.90;;;;;;4997037;28;20041;-75
2022/06/29 06:28:32;;;;;;;7.25;6.28;;;19.20;99.90;;;;;;5006943;28;20032;-73
2022/06/29 06:30:57;;;;;;;10.48;6.20;;;19.20;99.90;;;;;;4997353;28;20026;-73
2022/06/29 06:33:24;;;;;;;7.65;6.32;;;19.30;99.90;;;;;;5009061;28;20042;-72
2022/06/29 06:35:49;;;;;;;7.45;6.20;;;19.40;99.90;;;;;;4995389;28;20034;-72
2022/06/29 06:38:15;;;;;;;7.72;5.20;;;19.70;99.90;;;;;;5000606;28;20034;-72
2022/06/29 06:43:26;;;;;;;9.13;6.78;;;20.00;99.90;;;;;;5003716;28;20191;-72
2022/06/29 06:45:51;;;;;;;9.48;6.70;;;20.30;99.90;;;;;;5014159;28;20502;-72
2022/06/29 06:48:17;;;;;;;8.73;6.53;;;20.30;99.90;;;;;;5003051;28;20085;-72
2022/06/29 06:50:43;;;;;;;12.30;5.90;;;20.50;99.90;;;;;;5010717;28;20356;-73
2022/06/29 06:53:11;;;;;;;8.63;6.32;;;20.60;99.90;;;;;;5007247;28;20036;-75
2022/06/29 06:55:36;;;;;;;13.15;6.38;;;20.70;99.90;;;;;;5005818;28;20084;-79
2022/06/29 06:58:03;;;;;;;11.60;5.80;;;20.70;99.90;;;;;;5010960;28;20045;-75
2022/06/29 07:00:29;;;;;;;8.48;6.10;;;20.70;99.90;;;;;;5011656;28;20831;-74
2022/06/29 07:02:55;;;;;;;9.98;6.10;;;20.70;99.90;;;;;;5013330;28;20667;-74
2022/06/29 07:05:21;;;;;;;8.10;5.43;;;20.80;99.90;;;;;;5014965;28;20057;-73
2022/06/29 07:07:47;;;;;;;9.57;6.20;;;20.80;99.90;;;;;;5014591;28;20409;-72
2022/06/29 07:10:12;;;;;;;7.35;5.70;;;20.90;99.90;;;;;;5016940;28;20025;-72
2022/06/29 07:12:38;;;;;;;10.38;6.05;;;21.00;99.90;;;;;;5012768;28;20100;-72
2022/06/29 07:15:04;;;;;;;6.40;5.28;;;21.00;99.90;;;;;;5016579;28;20459;-73
2022/06/29 07:17:30;;;;;;;10.73;5.53;;;21.10;99.90;;;;;;5012140;28;20367;-73
2022/06/29 07:19:55;;;;;;;8.45;6.10;;;21.20;99.90;;;;;;5008505;28;20087;-73
2022/06/29 07:22:21;;;;;;;9.63;5.93;;;21.30;99.90;;;;;;5017702;28;20067;-72
2022/06/29 07:24:47;;;;;;;10.75;5.82;;;21.50;99.90;;;;;;5009039;28;20033;-72
2022/06/29 07:27:12;;;;;;;7.15;6.00;;;21.70;99.90;;;;;;5019544;28;20040;-78
2022/06/29 07:29:38;;;;;;;9.98;6.15;;;21.70;99.90;;;;;;5021947;28;20049;-77
2022/06/29 07:32:04;;;;;;;11.07;6.45;;;21.80;99.90;;;;;;4999106;28;20425;-79
2022/06/29 07:34:30;;;;;;;8.45;6.50;;;21.90;99.90;;;;;;5018679;28;20050;-77
2022/06/29 07:36:56;;;;;;;6.30;5.70;;;22.00;99.90;;;;;;5000576;28;20438;-77
2022/06/29 07:39:21;;;;;;;12.15;6.15;;;22.00;99.90;;;;;;5019560;28;20083;-78
2022/06/29 07:41:47;;;;;;;6.82;5.22;;;21.90;99.90;;;;;;5002916;28;20176;-79
2022/06/29 07:44:13;;;;;;;8.77;5.18;;;22.00;99.90;;;;;;5003184;28;20465;-79
2022/06/29 07:46:38;;;;;;;6.30;5.68;;;22.10;99.90;;;;;;5006690;28;20044;-77
2022/06/29 07:49:04;;;;;;;7.85;5.20;;;22.20;99.90;;;;;;5004383;28;20032;-77
2022/06/29 07:51:29;;;;;;;8.35;5.85;;;22.40;99.90;;;;;;4995895;28;20030;-75
2022/06/29 07:53:55;;;;;;;7.97;6.63;;;22.60;99.90;;;;;;5001193;28;20045;-76
2022/06/29 07:56:21;;;;;;;8.50;5.70;;;22.80;99.90;;;;;;5006185;28;20042;-76
2022/06/29 07:58:46;;;;;;;8.80;5.60;;;22.80;99.90;;;;;;5013240;28;20038;-76
2022/06/29 08:01:12;;;;;;;12.93;5.32;;;22.90;99.90;;;;;;5003557;28;20045;-77
2022/06/29 08:03:38;;;;;;;6.60;4.80;;;23.00;99.90;;;;;;5003754;28;20053;-77
2022/06/29 08:06:05;;;;;;;10.05;5.15;;;23.10;99.90;;;;;;4997406;28;20085;-75
2022/06/29 08:08:31;;;;;;;5.53;5.03;;;23.20;99.90;;;;;;5011632;28;20068;-77
2022/06/29 08:10:57;;;;;;;12.13;4.93;;;23.40;99.90;;;;;;5005862;28;20037;-75
2022/06/29 08:13:24;;;;;;;7.82;5.38;;;23.60;99.90;;;;;;4993683;28;20458;-78
2022/06/29 08:15:49;;;;;;;5.60;5.10;;;23.70;99.90;;;;;;5012950;28;20114;-77
2022/06/29 08:18:16;;;;;;;5.45;4.95;;;23.80;99.90;;;;;;4996453;28;20113;-75
2022/06/29 08:20:42;;;;;;;7.30;4.70;;;23.80;99.90;;;;;;5011949;28;20101;-77
2022/06/29 08:23:09;;;;;;;6.32;5.32;;;23.80;99.90;;;;;;4998038;28;20030;-80
2022/06/29 08:25:35;;;;;;;5.25;4.75;;;24.00;99.90;;;;;;5004623;28;20455;-77
2022/06/29 08:28:01;;;;;;;8.20;5.07;;;24.00;99.90;;;;;;5013636;28;20040;-76
2022/06/29 08:30:27;;;;;;;5.80;4.60;;;24.20;99.90;;;;;;4993761;28;20292;-76
2022/06/29 08:32:53;;;;;;;5.68;4.85;;;24.20;99.90;;;;;;4994154;28;20471;-78
2022/06/29 08:35:19;;;;;;;5.75;4.47;;;24.40;99.90;;;;;;4985546;28;20053;-76
2022/06/29 08:37:46;;;;;;;5.53;4.50;;;24.50;99.90;;;;;;4988653;28;20365;-77
2022/06/29 08:40:14;;;;;;;7.28;4.40;;;24.70;99.90;;;;;;4980404;28;20031;-73
2022/06/29 08:42:41;;;;;;;7.80;5.32;;;24.90;99.90;;;;;;4993152;28;20053;-75
2022/06/29 08:45:08;;;;;;;7.65;4.53;;;25.00;99.90;;;;;;4983558;28;20036;-75
2022/06/29 08:47:35;;;;;;;7.45;5.63;;;24.90;99.90;;;;;;4989939;28;20113;-74
2022/06/29 08:50:05;;;;;;;5.15;4.60;;;25.00;99.90;;;;;;4985110;28;20391;-74
2022/06/29 08:52:31;;;;;;;6.95;4.70;;;25.10;99.90;;;;;;4982683;28;20114;-73
2022/06/29 08:54:58;;;;;;;4.80;4.20;;;25.30;99.90;;;;;;4982414;28;20446;-74
2022/06/29 08:57:25;;;;;;;10.38;5.00;;;25.40;99.90;;;;;;4990668;28;20077;-73
2022/06/29 08:59:53;;;;;;;6.90;4.45;;;25.50;99.90;;;;;;4989094;28;20034;-75
2022/06/29 09:02:18;;;;;;;8.52;4.30;;;25.60;99.90;;;;;;4983878;28;20097;-73
2022/06/29 09:04:44;;;;;;;5.03;3.85;;;25.70;99.90;;;;;;4977886;28;20066;-74
2022/06/29 09:07:09;;;;;;;6.10;4.32;;;25.70;99.90;;;;;;4980447;28;20034;-73
2022/06/29 09:10:01;;;;;;;5.20;4.70;;;25.80;99.90;;;;;;4984617;28;20018;-74
2022/06/29 09:12:28;;;;;;;5.80;4.32;;;25.90;99.90;;;;;;4989917;28;20149;-74
2022/06/29 09:14:54;;;;;;;4.57;4.05;;;26.00;99.60;;;;;;4978508;28;20043;-74
2022/06/29 09:17:20;;;;;;;17.88;5.75;;;25.80;99.90;;;;;;4974518;28;20456;-74
2022/06/29 09:19:47;;;;;;;11.40;5.45;;;25.70;99.90;;;;;;4980067;28;20039;-74
2022/06/29 09:22:14;;;;;;;5.25;4.80;;;25.50;99.90;;;;;;4979298;28;20073;-73
2022/06/29 09:24:40;;;;;;;8.25;4.95;;;25.40;99.90;;;;;;4988431;28;20030;-75
2022/06/29 09:27:08;;;;;;;10.15;4.95;;;25.50;99.90;;;;;;4985823;28;20394;-74
2022/06/29 09:29:41;;;;;;;7.80;4.95;;;25.60;99.90;;;;;;4981485;28;20038;-74
2022/06/29 09:32:13;;;;;;;5.03;4.45;;;25.70;99.80;;;;;;4976382;28;20449;-74
2022/06/29 09:35:12;;;;;;;10.57;4.97;;;25.90;99.90;;;;;;4991622;28;20057;-74
2022/06/29 09:37:38;;;;;;;4.43;4.03;;;26.10;99.70;;;;;;5009228;28;20030;-74
2022/06/29 09:40:06;;;;;;;5.60;3.97;;;26.20;99.40;;;;;;5002149;28;20137;-74
2022/06/29 09:42:31;;;;;;;16.08;5.05;;;26.40;99.00;;;;;;4995662;28;20402;-74
2022/06/29 09:44:57;;;;;;;4.75;3.97;;;26.60;98.40;;;;;;4992748;28;20491;-74
2022/06/29 09:47:23;;;;;;;4.57;4.10;;;;;;;;;;5008071;28;20030;-74
2022/06/29 09:49:59;;;;;;;8.45;4.45;;;;;;;;;;4995987;28;20051;-75
2022/06/29 09:52:26;;;;;;;5.82;3.40;;;;;;;;;;5002867;28;20046;-73
2022/06/29 09:54:53;;;;;;;6.25;3.63;;;;;;;;;;4981902;28;20364;-75
2022/06/29 09:57:29;;;;;;;4.03;3.10;;;;;;;;;;5003679;28;20081;-74
2022/06/29 10:02:46;;;;;;;6.15;3.70;;;;;;;;;;5002881;28;20076;-74
2022/06/29 10:05:12;;;;;;;7.88;3.17;;;;;;;;;;5010449;28;20029;-73
2022/06/29 10:07:39;;;;;;;4.38;3.53;;;;;;;;;;5009655;28;20530;-74
2022/06/29 10:10:07;;;;;;;4.05;3.22;;;;;;;;;;5011008;28;20030;-75
2022/06/29 10:15:53;;;;;;;3.75;2.97;;;;;;;;;;5006866;28;20060;-75
2022/06/29 10:18:19;;;;;;;7.05;3.90;;;;;;;;;;5002966;28;20030;-74
2022/06/29 10:20:46;;;;;;;6.47;4.05;;;;;;;;;;4996568;28;20022;-74
2022/06/29 10:23:35;;;;;;;6.65;4.10;;;;;;;;;;5000518;28;20034;-72
2022/06/29 10:26:02;;;;;;;6.73;4.43;;;;;;;;;;4986481;28;20045;-74
2022/06/29 10:28:28;;;;;;;5.88;4.28;;;;;;;;;;5000766;28;20054;-74
2022/06/29 10:30:55;;;;;;;6.13;4.63;;;;;;;;;;5005870;28;20026;-75
2022/06/29 10:33:32;;;;;;;4.32;3.50;;;;;;;;;;5004231;28;20943;-74
2022/06/29 10:36:08;;;;;;;6.53;3.72;;;;;;;;;;5003577;28;20058;-74
2022/06/29 10:38:55;;;;;;;5.40;3.50;;;;;;;;;;5001929;28;20133;-74
2022/06/29 10:44:06;;;;;;;6.93;4.43;;;;;;;;;;5000990;28;20080;-76
2022/06/29 10:46:50;;;;;;;6.65;5.05;;;;;;;;;;5009878;28;20022;-74
2022/06/29 10:49:20;;;;;;;5.03;3.97;;;;;;;;;;5009328;28;20046;-74
2022/06/29 10:51:49;;;;;;;4.13;3.38;;;;;;;;;;5003066;28;20018;-73
2022/06/29 10:54:25;;;;;;;4.40;3.47;;;;;;;;;;5011722;28;20030;-75
2022/06/29 10:56:52;;;;;;;7.35;3.50;;;;;;;;;;5014280;28;20041;-74
2022/06/29 10:59:34;;;;;;;8.02;4.20;;;;;;;;;;5004908;28;20029;-73
2022/06/29 11:02:13;;;;;;;11.23;4.70;;;;;;;;;;5013283;28;20029;-74
2022/06/29 11:04:40;;;;;;;5.28;3.42;;;;;;;;;;5011757;28;20038;-73
2022/06/29 11:12:46;;;;;;;6.57;3.70;;;;;;;;;;5019463;28;20506;-74
2022/06/29 11:17:57;;;;;;;7.05;3.83;;;;;;;;;;5020706;28;20037;-73
2022/06/29 11:20:25;;;;;;;4.40;3.63;;;;;;;;;;5019571;28;20421;-74
2022/06/29 11:22:54;;;;;;;5.55;3.70;;;;;;;;;;5020204;28;20037;-73
2022/06/29 11:25:20;;;;;;;6.50;3.83;;;;;;;;;;5017103;28;20026;-73
2022/06/29 11:27:46;;;;;;;5.15;4.18;;;;;;;;;;5017017;28;20057;-73
2022/06/29 11:30:15;;;;;;;4.63;3.22;;;;;;;;;;5015550;28;20053;-73
2022/06/29 11:32:42;;;;;;;11.00;3.72;;;;;;;;;;5018354;28;20045;-74
2022/06/29 11:35:09;;;;;;;6.53;3.40;;;;;;;;;;5015655;28;20046;-74
2022/06/29 11:37:35;;;;;;;5.05;3.83;;;;;;;;;;5018363;28;20116;-73
2022/06/29 11:40:04;;;;;;;5.65;3.72;;;;;;;;;;5011216;28;20038;-74
2022/06/29 11:45:23;;;;;;;6.32;4.32;;;;;;;;;;5013399;28;20207;-73
2022/06/29 11:47:55;;;;;;;6.82;3.83;;;;;;;;;;5004693;28;20030;-75
2022/06/29 11:50:22;;;;;;;7.15;3.50;;;;;;;;;;4992928;28;20380;-74
2022/06/29 11:52:51;;;;;;;7.47;3.95;;;28.40;94.20;;;;;;4994467;28;20491;-74
2022/06/29 11:55:44;;;;;;;8.38;4.45;;;28.60;94.20;;;;;;5002285;28;20038;-72
2022/06/29 11:58:16;;;;;;;9.02;3.70;;;28.40;94.30;;;;;;5004689;28;20060;-74
2022/06/29 12:00:43;;;;;;;4.45;3.53;;;28.20;94.80;;;;;;5000630;28;20033;-73
2022/06/29 12:03:12;;;;;;;4.07;3.55;;;28.10;94.30;;;;;;5008410;28;20030;-73
2022/06/29 12:05:52;;;;;;;5.18;3.63;;;28.00;95.20;;;;;;4992504;28;20398;-73
2022/06/29 12:08:18;;;;;;;5.10;3.55;;;27.90;94.80;;;;;;5012734;28;20026;-72
2022/06/29 12:10:44;;;;;;;15.27;4.53;;;27.80;94.80;;;;;;5007140;28;20053;-73
2022/06/29 12:13:09;;;;;;;4.95;3.63;;;27.70;94.80;;;;;;4994435;28;20043;-74
2022/06/29 12:15:35;;;;;;;4.30;3.30;;;27.80;95.40;;;;;;5010037;28;20042;-74
2022/06/29 12:18:01;;;;;;;8.73;3.78;;;27.80;94.90;;;;;;5004125;28;20040;-73
2022/06/29 12:20:26;;;;;;;5.28;3.60;;;28.00;94.60;;;;;;4993118;28;20032;-74
2022/06/29 12:22:52;;;;;;;7.65;3.83;;;28.10;94.90;;;;;;5003202;28;20095;-73
2022/06/29 12:25:22;;;;;;;4.38;3.33;;;28.20;94.60;;;;;;5001205;28;20038;-72
2022/06/29 12:27:47;;;;;;;11.88;3.67;;;28.10;93.90;;;;;;4994661;28;20042;-73
2022/06/29 12:30:13;;;;;;;5.28;3.70;;;28.10;94.20;;;;;;4993771;28;20040;-73
2022/06/29 12:32:39;;;;;;;12.05;3.50;;;28.20;93.90;;;;;;5005622;28;20087;-73
2022/06/29 12:35:05;;;;;;;6.60;3.70;;;28.30;93.60;;;;;;5010488;28;20519;-73
2022/06/29 12:37:31;;;;;;;4.80;3.45;;;28.60;93.20;;;;;;5005736;28;20482;-72
2022/06/29 12:39:56;;;;;;;4.75;3.50;;;28.90;94.00;;;;;;4999293;28;20115;-74
2022/06/29 12:42:22;;;;;;;4.07;3.05;;;29.20;92.40;;;;;;5011238;28;20029;-73
2022/06/29 12:44:48;;;;;;;4.70;3.15;;;29.30;92.50;;;;;;4997429;28;20030;-75
2022/06/29 12:47:13;;;;;;;4.68;3.08;;;29.60;91.90;;;;;;5007455;28;20495;-75
2022/06/29 12:49:39;;;;;;;8.63;3.40;;;29.80;91.10;;;;;;5004517;28;20497;-74
2022/06/29 12:52:05;;;;;;;6.57;2.95;;;29.70;90.10;;;;;;4993411;28;20026;-75
2022/06/29 12:54:31;;;;;;;3.70;3.17;;;29.30;90.20;;;;;;5008722;28;20022;-75
2022/06/29 12:56:56;;;;;;;4.43;3.28;;;29.00;90.80;;;;;;5008361;28;20053;-75
2022/06/29 12:59:22;;;;;;;3.97;2.88;;;28.80;90.70;;;;;;5011539;28;20059;-75
2022/06/29 13:01:47;;;;;;;7.22;2.92;;;28.80;91.30;;;;;;5005501;28;20026;-74
2022/06/29 13:04:13;;;;;;;6.07;2.85;;;29.00;91.20;;;;;;4998586;28;20073;-74
2022/06/29 13:06:40;;;;;;;6.20;3.22;;;29.10;91.00;;;;;;5009291;28;20112;-72
2022/06/29 13:09:05;;;;;;;8.40;3.35;;;29.20;90.20;;;;;;5007004;28;20032;-74
2022/06/29 13:11:31;;;;;;;6.10;3.00;;;29.10;90.60;;;;;;5000855;28;20034;-73
2022/06/29 13:13:57;;;;;;;6.88;3.35;;;28.90;91.20;;;;;;5003485;28;20555;-74
2022/06/29 13:16:22;;;;;;;7.53;3.40;;;28.80;91.10;;;;;;5008798;28;20117;-73
2022/06/29 13:18:48;;;;;;;8.05;3.10;;;28.50;91.80;;;;;;5004462;28;20036;-74
2022/06/29 13:21:14;;;;;;;5.05;3.10;;;28.40;92.40;;;;;;5011909;28;20467;-73
2022/06/29 13:23:39;;;;;;;6.80;3.03;;;28.20;92.10;;;;;;5011455;28;20450;-73
2022/06/29 13:26:07;;;;;;;5.45;2.90;;;28.30;91.90;;;;;;5012085;28;20042;-73
2022/06/29 13:28:33;;;;;;;4.88;2.60;;;28.60;91.10;;;;;;5009185;28;20054;-73
2022/06/29 13:30:59;;;;;;;7.05;2.97;;;28.80;90.50;;;;;;5009984;28;20052;-73
2022/06/29 13:33:25;;;;;;;3.78;2.75;;;28.70;91.00;;;;;;5008870;28;20125;-73
2022/06/29 13:35:51;;;;;;;4.55;2.65;;;28.70;91.40;;;;;;5000987;28;20117;-75